Ankara, Turkey
Current Conditions -  °F | °C
As of 9:50 AM on Sunday 21 Dec 2014 (Local Time) from LTAC Reporting Station
Haze Haze  
Wind Chill: 36°   Ceiling: 600
Heat Index: 36°   Visibility: 1.2mi
Dew Point: 36°   Wind: 3mph
Humidity: 100%   Direction: 250°WSW
Pressure: 30.12"   Gusts: NA
Location:  39.93°N, 32.85°E
Report Text: LTAC 210650Z 25003KT 200V330 2000 BR BKN006 02/02 Q1020 NOSIG
Loading
Personal Weather Stations






























Interactive Weather Map New forecast layout! Learn more

10-Day Weather Forecast

Advertisements
Track Severe Weather on mobile